Time;durP1;ratioP1;P1;durP2;ratioP2;P2;SDS_P1;SDS_P2;PMS_P1;PMS_P2;Temp;Humidity;BMP_temperature;BMP_pressure;BME280_temperature;BME280_humidity;BME280_pressure;Samples;Min_cycle;Max_cycle;Signal;HPM_P1;HPM_P2
2023/12/07 00:00:33;;;;;;;8.20;3.83;;;2.70;88.20;;;;;;5066861;28;20050;-83
2023/12/07 00:03:00;;;;;;;10.35;5.18;;;2.70;88.40;;;;;;5049786;28;20045;-83
2023/12/07 00:05:28;;;;;;;10.40;5.33;;;2.70;88.50;;;;;;5066469;28;20666;-82
2023/12/07 00:07:55;;;;;;;11.18;4.57;;;2.70;88.50;;;;;;5066768;28;21004;-83
2023/12/07 00:10:22;;;;;;;9.48;5.13;;;2.70;88.60;;;;;;5066931;28;20061;-83
2023/12/07 00:12:49;;;;;;;11.70;5.38;;;2.70;88.50;;;;;;5066147;28;20051;-82
2023/12/07 00:15:16;;;;;;;8.25;3.00;;;2.60;88.50;;;;;;5066387;28;20059;-83
2023/12/07 00:17:43;;;;;;;12.07;4.83;;;2.60;88.60;;;;;;5083832;28;20048;-83
2023/12/07 00:20:10;;;;;;;11.15;4.72;;;2.60;88.50;;;;;;5066387;28;20497;-83
2023/12/07 00:22:39;;;;;;;10.30;5.07;;;2.60;88.40;;;;;;5066288;28;20091;-83
2023/12/07 00:25:07;;;;;;;10.82;4.97;;;2.50;88.40;;;;;;5099743;28;20049;-83
2023/12/07 00:27:34;;;;;;;12.15;5.88;;;2.50;88.50;;;;;;5083257;28;20586;-83
2023/12/07 00:30:01;;;;;;;9.10;4.33;;;2.50;88.60;;;;;;5083156;28;20518;-83
2023/12/07 00:32:28;;;;;;;12.10;5.20;;;2.60;88.70;;;;;;5066392;28;20539;-82
2023/12/07 00:34:55;;;;;;;13.18;5.82;;;2.50;88.70;;;;;;5067532;28;20053;-83
2023/12/07 00:37:22;;;;;;;10.07;3.95;;;2.50;88.60;;;;;;5066386;28;20044;-83
2023/12/07 00:39:50;;;;;;;11.40;5.32;;;2.50;88.70;;;;;;5065963;28;20529;-83
2023/12/07 00:42:17;;;;;;;9.37;4.20;;;2.50;88.60;;;;;;5065877;28;20140;-82
2023/12/07 00:44:44;;;;;;;9.65;3.78;;;2.50;88.60;;;;;;5067985;28;20060;-82
2023/12/07 00:47:10;;;;;;;12.90;5.75;;;2.50;88.80;;;;;;5065895;28;20493;-83
2023/12/07 00:49:39;;;;;;;13.73;5.25;;;2.50;88.90;;;;;;5066093;28;20053;-83
2023/12/07 00:52:06;;;;;;;11.82;5.28;;;2.50;88.80;;;;;;5065189;28;20045;-83
2023/12/07 00:54:33;;;;;;;14.67;5.77;;;2.50;88.90;;;;;;5066295;28;20053;-83
2023/12/07 00:57:02;;;;;;;11.75;5.20;;;2.50;88.70;;;;;;5067541;28;20049;-83
2023/12/07 00:59:33;;;;;;;13.43;6.28;;;2.50;88.70;;;;;;5054925;28;20053;-83
2023/12/07 01:02:01;;;;;;;12.20;5.82;;;2.50;88.70;;;;;;5045154;28;20046;-83
2023/12/07 01:04:28;;;;;;;12.80;5.32;;;2.50;88.70;;;;;;5045733;28;20057;-84
2023/12/07 01:06:55;;;;;;;12.77;5.73;;;2.50;88.70;;;;;;5047413;28;20065;-83
2023/12/07 01:09:22;;;;;;;13.00;5.72;;;2.50;88.70;;;;;;5049455;28;20087;-83
2023/12/07 01:11:49;;;;;;;12.38;6.10;;;2.50;88.70;;;;;;5047625;28;20065;-84
2023/12/07 01:14:18;;;;;;;10.70;5.13;;;2.50;88.60;;;;;;5047553;28;20060;-83
2023/12/07 01:16:45;;;;;;;11.93;5.25;;;2.50;88.70;;;;;;5047562;28;20046;-83
2023/12/07 01:19:14;;;;;;;13.27;6.27;;;2.50;88.70;;;;;;5049491;28;20131;-83
2023/12/07 01:21:41;;;;;;;12.82;5.75;;;2.50;88.70;;;;;;5049208;28;20053;-83
2023/12/07 01:24:08;;;;;;;13.55;5.90;;;2.50;88.90;;;;;;5048633;28;20052;-83
2023/12/07 01:26:35;;;;;;;12.77;5.95;;;2.60;88.80;;;;;;5049147;28;20077;-83
2023/12/07 01:29:02;;;;;;;13.10;6.22;;;2.60;88.80;;;;;;5049081;28;20055;-83
2023/12/07 01:31:30;;;;;;;13.43;6.00;;;2.60;88.90;;;;;;5048252;28;20053;-83
2023/12/07 01:33:57;;;;;;;12.95;5.65;;;2.70;88.90;;;;;;5048987;28;20504;-83
2023/12/07 01:36:24;;;;;;;14.80;6.35;;;2.70;88.80;;;;;;5048864;28;20057;-83
2023/12/07 01:38:51;;;;;;;13.43;6.03;;;2.70;88.90;;;;;;5065985;28;20057;-82
2023/12/07 01:41:18;;;;;;;11.80;5.22;;;2.70;88.80;;;;;;5065065;28;20049;-83
2023/12/07 01:43:46;;;;;;;11.37;5.60;;;2.70;88.70;;;;;;5050197;28;20503;-83
2023/12/07 01:46:14;;;;;;;12.30;5.60;;;2.70;88.60;;;;;;5048365;28;20056;-82
2023/12/07 01:48:43;;;;;;;12.48;5.95;;;2.70;88.60;;;;;;5065703;28;20921;-83
2023/12/07 01:51:11;;;;;;;13.02;5.65;;;2.70;88.50;;;;;;5047821;28;20050;-83
2023/12/07 01:53:39;;;;;;;11.65;5.60;;;2.70;88.40;;;;;;5065617;28;20060;-83
2023/12/07 01:56:07;;;;;;;10.83;5.70;;;2.70;88.40;;;;;;5065075;28;20517;-83
2023/12/07 01:58:35;;;;;;;11.25;5.57;;;2.70;88.30;;;;;;5070676;28;20052;-83
2023/12/07 02:01:02;;;;;;;12.55;6.22;;;2.70;88.20;;;;;;5068081;28;20069;-83
2023/12/07 02:03:30;;;;;;;12.13;6.47;;;2.70;88.20;;;;;;5068481;28;20135;-83
2023/12/07 02:05:59;;;;;;;14.07;6.22;;;2.70;88.20;;;;;;5050518;28;21099;-84
2023/12/07 02:08:26;;;;;;;13.13;6.17;;;2.70;88.20;;;;;;5048677;28;20152;-83
2023/12/07 02:10:53;;;;;;;12.38;4.82;;;2.70;88.20;;;;;;5048815;28;20084;-83
2023/12/07 02:13:20;;;;;;;10.65;4.90;;;2.70;88.00;;;;;;5047859;28;20057;-83
2023/12/07 02:15:47;;;;;;;13.05;5.00;;;2.70;88.00;;;;;;5048337;28;20056;-83
2023/12/07 02:18:20;;;;;;;13.55;6.50;;;2.60;87.90;;;;;;5047826;28;20064;-83
2023/12/07 02:20:54;;;;;;;12.20;5.67;;;2.60;87.90;;;;;;5047404;28;20049;-83
2023/12/07 02:23:24;;;;;;;12.73;5.97;;;2.60;87.80;;;;;;5047900;28;20053;-83
2023/12/07 02:25:53;;;;;;;11.77;5.47;;;2.50;87.80;;;;;;5064921;28;20053;-83
2023/12/07 02:28:21;;;;;;;11.77;5.72;;;2.50;87.80;;;;;;5064930;28;20129;-83
2023/12/07 02:30:48;;;;;;;13.38;6.32;;;2.50;87.80;;;;;;5064537;28;20502;-83
2023/12/07 02:33:15;;;;;;;11.53;5.60;;;2.50;87.80;;;;;;5047787;28;20058;-83
2023/12/07 02:35:43;;;;;;;13.50;6.18;;;2.50;87.90;;;;;;5047653;28;20108;-83
2023/12/07 02:38:10;;;;;;;13.98;5.90;;;2.50;88.00;;;;;;5049109;28;20049;-84
2023/12/07 02:40:39;;;;;;;12.10;5.28;;;2.50;88.00;;;;;;5048886;28;20052;-83
2023/12/07 02:43:07;;;;;;;12.07;5.68;;;2.50;88.10;;;;;;5048953;28;20164;-82
2023/12/07 02:45:35;;;;;;;9.93;4.53;;;2.50;88.00;;;;;;5064967;28;20057;-83
2023/12/07 02:48:02;;;;;;;9.90;4.88;;;2.50;88.00;;;;;;5031105;28;20049;-83
2023/12/07 02:50:29;;;;;;;11.20;5.38;;;2.50;87.90;;;;;;5047472;28;20069;-83
2023/12/07 02:52:56;;;;;;;12.48;5.80;;;2.40;87.90;;;;;;5047232;28;20062;-83
2023/12/07 02:55:23;;;;;;;13.40;6.03;;;2.40;88.00;;;;;;5047749;28;20056;-83
2023/12/07 02:57:51;;;;;;;12.13;6.00;;;2.40;88.20;;;;;;5047167;28;20049;-83
2023/12/07 03:00:18;;;;;;;13.38;6.07;;;2.40;88.20;;;;;;5067472;28;20053;-83
2023/12/07 03:02:47;;;;;;;12.13;5.93;;;2.40;88.20;;;;;;5067509;28;20140;-83
2023/12/07 03:05:14;;;;;;;15.10;5.90;;;2.40;88.20;;;;;;5050814;28;20056;-83
2023/12/07 03:07:41;;;;;;;14.85;6.43;;;2.50;88.20;;;;;;5067375;28;20138;-83
2023/12/07 03:10:09;;;;;;;13.57;5.40;;;2.50;88.20;;;;;;5067494;28;20593;-83
2023/12/07 03:12:35;;;;;;;13.70;5.85;;;2.50;88.00;;;;;;5067407;28;20059;-82
2023/12/07 03:15:02;;;;;;;16.35;6.63;;;2.50;88.00;;;;;;5067394;28;20053;-83
2023/12/07 03:17:29;;;;;;;13.85;5.75;;;2.50;87.90;;;;;;5084294;28;20576;-83
2023/12/07 03:19:57;;;;;;;14.93;6.20;;;2.40;87.90;;;;;;5068920;28;20542;-83
2023/12/07 03:22:25;;;;;;;13.80;6.20;;;2.40;87.70;;;;;;5050096;28;20053;-82
2023/12/07 03:24:53;;;;;;;14.18;6.78;;;2.40;87.70;;;;;;5067405;28;20053;-83
2023/12/07 03:27:20;;;;;;;15.25;6.68;;;2.40;87.60;;;;;;5068703;28;20096;-82
2023/12/07 03:29:47;;;;;;;13.55;6.68;;;2.40;87.60;;;;;;5067030;28;20056;-82
2023/12/07 03:32:14;;;;;;;17.08;7.22;;;2.40;87.50;;;;;;5066660;28;20052;-83
2023/12/07 03:34:41;;;;;;;14.30;6.20;;;2.40;87.50;;;;;;5067236;28;20547;-83
2023/12/07 03:37:09;;;;;;;14.48;6.72;;;2.30;87.40;;;;;;5066989;28;20052;-83
2023/12/07 03:39:36;;;;;;;15.07;6.30;;;2.30;87.40;;;;;;5066601;28;20060;-83
2023/12/07 03:42:03;;;;;;;14.65;6.00;;;2.30;87.40;;;;;;5066633;28;20056;-83
2023/12/07 03:44:30;;;;;;;15.38;7.03;;;2.20;87.40;;;;;;5067098;28;20096;-83
2023/12/07 03:46:57;;;;;;;12.57;5.87;;;2.20;87.40;;;;;;5066955;28;20059;-83
2023/12/07 03:49:24;;;;;;;15.32;6.80;;;2.20;87.50;;;;;;5067132;28;20053;-83
2023/12/07 03:51:51;;;;;;;15.52;7.03;;;2.20;87.40;;;;;;5066077;28;20667;-83
2023/12/07 03:54:20;;;;;;;16.95;7.20;;;2.20;87.50;;;;;;5050060;28;20529;-83
2023/12/07 03:56:46;;;;;;;18.48;7.50;;;2.20;87.50;;;;;;5068021;28;20056;-82
2023/12/07 03:59:13;;;;;;;17.83;8.37;;;2.10;87.50;;;;;;5056083;28;20060;-83
2023/12/07 04:01:40;;;;;;;17.50;8.10;;;2.10;87.50;;;;;;5063275;28;20053;-83
2023/12/07 04:04:07;;;;;;;17.67;8.02;;;2.10;87.50;;;;;;5048004;28;20588;-83
2023/12/07 04:06:34;;;;;;;21.02;8.75;;;2.10;87.40;;;;;;5048458;28;20049;-83
2023/12/07 04:09:01;;;;;;;19.98;8.70;;;2.10;87.30;;;;;;5048048;28;20065;-83
2023/12/07 04:11:29;;;;;;;19.23;8.07;;;2.10;87.20;;;;;;5046623;28;20053;-83
2023/12/07 04:13:56;;;;;;;18.98;8.10;;;2.00;87.20;;;;;;5047913;28;20049;-83
2023/12/07 04:16:23;;;;;;;18.40;8.60;;;2.00;87.20;;;;;;5063336;28;21222;-83
2023/12/07 04:18:50;;;;;;;19.33;9.10;;;2.00;87.30;;;;;;5047594;28;20051;-83
2023/12/07 04:21:16;;;;;;;17.90;7.82;;;2.00;87.20;;;;;;5047631;28;20064;-82
2023/12/07 04:23:43;;;;;;;21.23;8.33;;;2.00;87.30;;;;;;5045964;28;20060;-83
2023/12/07 04:26:10;;;;;;;17.25;7.63;;;1.90;87.30;;;;;;5046198;28;20632;-83
2023/12/07 04:28:39;;;;;;;17.85;8.38;;;1.90;87.30;;;;;;5046362;28;20074;-83
2023/12/07 04:31:06;;;;;;;19.48;8.88;;;1.90;87.30;;;;;;5047322;28;20060;-83
2023/12/07 04:33:32;;;;;;;19.17;8.23;;;1.90;87.30;;;;;;5046697;28;20054;-82
2023/12/07 04:36:00;;;;;;;17.60;8.20;;;1.90;87.30;;;;;;5046595;28;20049;-82
2023/12/07 04:38:27;;;;;;;18.55;8.25;;;1.90;87.30;;;;;;5045936;28;20049;-83
2023/12/07 04:40:53;;;;;;;19.33;8.65;;;1.80;87.30;;;;;;5047275;28;20060;-83
2023/12/07 04:43:20;;;;;;;18.90;7.95;;;1.80;87.30;;;;;;5031341;28;20053;-82
2023/12/07 04:45:49;;;;;;;17.92;7.90;;;1.80;87.30;;;;;;5049874;28;20164;-83
2023/12/07 04:48:15;;;;;;;17.90;7.83;;;1.80;87.40;;;;;;5050764;28;20042;-82
2023/12/07 04:50:42;;;;;;;19.67;7.97;;;1.80;87.50;;;;;;5051360;28;20085;-82
2023/12/07 04:53:09;;;;;;;20.08;8.48;;;1.80;87.40;;;;;;5050443;28;20053;-82
2023/12/07 04:55:36;;;;;;;18.30;7.95;;;1.80;87.40;;;;;;5051008;28;20046;-83
2023/12/07 04:58:03;;;;;;;18.05;8.00;;;1.80;87.40;;;;;;5050353;28;20147;-83
2023/12/07 05:00:30;;;;;;;18.20;7.90;;;1.80;87.40;;;;;;5069651;28;20053;-82
2023/12/07 05:02:58;;;;;;;17.15;8.23;;;1.80;87.50;;;;;;5086233;28;20055;-83
2023/12/07 05:05:25;;;;;;;17.98;8.80;;;1.80;87.50;;;;;;5069673;28;20487;-82
2023/12/07 05:07:52;;;;;;;19.38;8.30;;;1.80;87.50;;;;;;5069486;28;20529;-82
2023/12/07 05:10:19;;;;;;;19.55;8.95;;;1.80;87.50;;;;;;5069472;28;20493;-82
2023/12/07 05:12:46;;;;;;;18.37;8.27;;;1.80;87.50;;;;;;5068995;28;20057;-82
2023/12/07 05:15:13;;;;;;;18.40;8.52;;;1.80;87.50;;;;;;5052679;28;20049;-83
2023/12/07 05:17:40;;;;;;;19.55;9.50;;;1.70;87.50;;;;;;5086049;28;20049;-83
2023/12/07 05:20:09;;;;;;;19.95;8.85;;;1.80;87.40;;;;;;5068673;28;20041;-83
2023/12/07 05:22:36;;;;;;;22.25;9.77;;;1.70;87.40;;;;;;5069256;28;20052;-83
2023/12/07 05:25:04;;;;;;;18.20;8.00;;;1.70;87.40;;;;;;5069311;28;20072;-84
2023/12/07 05:27:31;;;;;;;19.27;8.57;;;1.70;87.30;;;;;;5069045;28;20060;-83
2023/12/07 05:29:58;;;;;;;20.63;9.13;;;1.70;87.40;;;;;;5069307;28;20061;-82
2023/12/07 05:32:25;;;;;;;18.98;8.13;;;1.70;87.40;;;;;;5069251;28;20057;-83
2023/12/07 05:34:52;;;;;;;20.92;9.57;;;1.70;87.40;;;;;;5093167;28;20529;-82
2023/12/07 05:37:21;;;;;;;21.33;8.93;;;1.70;87.40;;;;;;5069006;28;20107;-82
2023/12/07 05:39:47;;;;;;;23.08;9.20;;;1.70;87.40;;;;;;5068611;28;20056;-83
2023/12/07 05:42:14;;;;;;;21.55;9.73;;;1.70;87.50;;;;;;5085533;28;20052;-83
2023/12/07 05:44:41;;;;;;;22.15;9.90;;;1.70;87.50;;;;;;5068817;28;20057;-83
2023/12/07 05:47:08;;;;;;;23.30;9.90;;;1.70;87.40;;;;;;5070664;28;20049;-83
2023/12/07 05:49:35;;;;;;;23.53;10.03;;;1.70;87.40;;;;;;5068544;28;20053;-83
2023/12/07 05:52:03;;;;;;;20.55;10.07;;;1.70;87.40;;;;;;5068925;28;20049;-82
2023/12/07 05:54:31;;;;;;;21.60;10.73;;;1.70;87.50;;;;;;5067032;28;20079;-83
2023/12/07 05:56:58;;;;;;;22.15;10.85;;;1.70;87.30;;;;;;5068914;28;20052;-82
2023/12/07 05:59:25;;;;;;;21.98;10.32;;;1.70;87.40;;;;;;5068797;28;20143;-82
2023/12/07 06:01:53;;;;;;;20.53;10.50;;;1.70;87.40;;;;;;5068258;28;20063;-83
2023/12/07 06:04:20;;;;;;;22.55;9.77;;;1.70;87.40;;;;;;5051454;28;20059;-83
2023/12/07 06:06:47;;;;;;;23.48;10.35;;;1.70;87.30;;;;;;5085034;28;20045;-82
2023/12/07 06:09:14;;;;;;;20.75;10.43;;;1.70;87.40;;;;;;5068391;28;20056;-83
2023/12/07 06:11:43;;;;;;;19.25;10.00;;;1.70;87.40;;;;;;5069580;28;20503;-82
2023/12/07 06:14:09;;;;;;;20.33;9.50;;;1.60;87.50;;;;;;5051556;28;20055;-82
2023/12/07 06:16:37;;;;;;;23.55;9.43;;;1.60;87.50;;;;;;5085513;28;20136;-83
2023/12/07 06:19:04;;;;;;;17.65;9.55;;;1.70;87.50;;;;;;5068565;28;20055;-82
2023/12/07 06:21:31;;;;;;;19.35;9.27;;;1.70;87.50;;;;;;5067946;28;20135;-82
2023/12/07 06:23:59;;;;;;;22.08;10.00;;;1.70;87.50;;;;;;5085112;28;20088;-82
2023/12/07 06:26:26;;;;;;;19.63;10.20;;;1.70;87.50;;;;;;5068307;28;20049;-82
2023/12/07 06:28:54;;;;;;;20.48;9.90;;;1.70;87.40;;;;;;5067981;28;20627;-82
2023/12/07 06:31:21;;;;;;;20.73;9.95;;;1.70;87.30;;;;;;5068474;28;20492;-83
2023/12/07 06:33:48;;;;;;;19.73;9.55;;;1.70;87.30;;;;;;5068271;28;20059;-82
2023/12/07 06:36:20;;;;;;;21.85;9.70;;;1.70;87.30;;;;;;5085200;28;20503;-82
2023/12/07 06:38:47;;;;;;;21.47;10.53;;;1.70;87.30;;;;;;5067867;28;20076;-82
2023/12/07 06:41:14;;;;;;;18.42;9.20;;;1.70;87.20;;;;;;5069579;28;20068;-82
2023/12/07 06:43:41;;;;;;;18.48;9.50;;;1.70;87.10;;;;;;5067956;28;20053;-82
2023/12/07 06:46:09;;;;;;;21.00;9.70;;;1.70;87.10;;;;;;5069549;28;20576;-82
2023/12/07 06:48:36;;;;;;;18.25;9.23;;;1.70;87.00;;;;;;5068236;28;20049;-82
2023/12/07 06:51:04;;;;;;;19.40;9.63;;;1.70;87.00;;;;;;5067946;28;20508;-82
2023/12/07 06:53:32;;;;;;;22.13;9.57;;;1.70;86.80;;;;;;5068007;28;20683;-82
2023/12/07 06:55:59;;;;;;;19.40;9.15;;;1.70;86.70;;;;;;5067585;28;20153;-82
2023/12/07 06:58:26;;;;;;;19.02;9.52;;;1.70;86.60;;;;;;5067953;28;20053;-82
2023/12/07 07:00:53;;;;;;;20.23;9.95;;;1.70;86.50;;;;;;5084346;28;20056;-82
2023/12/07 07:03:22;;;;;;;19.17;9.90;;;1.70;86.50;;;;;;5068544;28;20517;-82
2023/12/07 07:05:48;;;;;;;20.70;9.70;;;1.70;86.40;;;;;;5048848;28;20534;-82
2023/12/07 07:08:15;;;;;;;20.52;9.27;;;1.60;86.30;;;;;;5058273;28;20049;-82
2023/12/07 07:10:42;;;;;;;24.92;9.90;;;1.60;86.30;;;;;;5054600;28;20053;-83
2023/12/07 07:13:09;;;;;;;22.77;10.50;;;1.60;86.40;;;;;;5055001;28;20163;-82
2023/12/07 07:15:36;;;;;;;22.97;9.17;;;1.60;86.40;;;;;;5057281;28;20049;-82
2023/12/07 07:18:03;;;;;;;19.30;8.95;;;1.60;86.30;;;;;;5056558;28;20486;-82
2023/12/07 07:20:31;;;;;;;18.10;8.68;;;1.60;86.20;;;;;;5064121;28;20055;-82
2023/12/07 07:22:58;;;;;;;18.38;9.07;;;1.60;86.20;;;;;;5065490;28;20048;-82
2023/12/07 07:25:25;;;;;;;21.02;8.82;;;1.60;86.20;;;;;;5067418;28;20076;-82
2023/12/07 07:27:54;;;;;;;21.50;9.40;;;1.60;86.10;;;;;;5082986;28;20045;-82
2023/12/07 07:30:21;;;;;;;20.05;9.02;;;1.60;86.20;;;;;;5066076;28;20052;-82
2023/12/07 07:32:48;;;;;;;19.40;9.10;;;1.60;86.10;;;;;;5067161;28;20128;-82
2023/12/07 07:35:15;;;;;;;19.80;9.85;;;1.70;86.10;;;;;;5067435;28;20072;-82
2023/12/07 07:37:44;;;;;;;18.13;9.20;;;1.70;86.10;;;;;;5065449;28;20079;-82
2023/12/07 07:40:12;;;;;;;19.37;9.17;;;1.70;86.10;;;;;;5064688;28;20052;-81
2023/12/07 07:42:39;;;;;;;19.67;9.05;;;1.70;86.10;;;;;;5067502;28;20126;-82
2023/12/07 07:45:07;;;;;;;20.77;9.27;;;1.70;86.10;;;;;;5048922;28;20049;-81
2023/12/07 07:47:34;;;;;;;18.73;9.02;;;1.70;86.10;;;;;;5066261;28;20527;-82
2023/12/07 07:50:05;;;;;;;17.48;8.88;;;1.70;85.90;;;;;;5067239;28;20643;-82
2023/12/07 07:52:33;;;;;;;17.07;8.60;;;1.80;85.90;;;;;;5065142;28;20466;-82
2023/12/07 07:55:02;;;;;;;18.45;8.82;;;1.80;85.80;;;;;;5065862;28;20049;-82
2023/12/07 07:57:30;;;;;;;18.90;8.70;;;1.80;85.70;;;;;;5065806;28;20049;-82
2023/12/07 07:59:58;;;;;;;19.98;9.00;;;1.80;85.70;;;;;;5066496;28;20146;-81
2023/12/07 08:02:25;;;;;;;17.52;8.60;;;1.80;85.60;;;;;;5067045;28;20060;-81
2023/12/07 08:04:52;;;;;;;17.83;8.93;;;1.80;85.50;;;;;;5066668;28;20124;-81
2023/12/07 08:07:19;;;;;;;19.98;9.57;;;1.80;85.40;;;;;;5050223;28;20050;-81
2023/12/07 08:09:46;;;;;;;18.20;8.88;;;1.80;85.20;;;;;;5046689;28;20053;-81
2023/12/07 08:12:15;;;;;;;22.48;8.80;;;1.80;85.30;;;;;;5048465;28;20999;-81
2023/12/07 08:14:44;;;;;;;18.55;8.77;;;1.80;85.20;;;;;;5046470;28;20522;-81
2023/12/07 08:17:12;;;;;;;18.63;9.27;;;1.80;85.10;;;;;;5046710;28;20050;-81
2023/12/07 08:19:39;;;;;;;19.45;9.10;;;1.80;85.20;;;;;;5050052;28;20080;-81
2023/12/07 08:22:06;;;;;;;18.80;9.07;;;1.80;85.20;;;;;;5050025;28;20053;-83
2023/12/07 08:24:33;;;;;;;18.42;8.00;;;1.80;85.20;;;;;;5048465;28;20053;-83
2023/12/07 08:27:01;;;;;;;21.02;8.85;;;1.80;85.00;;;;;;5049204;28;20055;-82
2023/12/07 08:29:29;;;;;;;21.07;9.17;;;1.80;85.00;;;;;;5048806;28;20053;-82
2023/12/07 08:31:56;;;;;;;20.00;9.13;;;1.80;85.00;;;;;;5048742;28;20053;-83
2023/12/07 08:34:24;;;;;;;21.27;9.00;;;1.70;84.90;;;;;;5048900;28;20108;-82
2023/12/07 08:36:51;;;;;;;20.23;9.40;;;1.70;85.00;;;;;;5050343;28;20057;-81
2023/12/07 08:39:18;;;;;;;21.70;9.90;;;1.70;85.00;;;;;;5051021;28;20050;-81
2023/12/07 08:41:45;;;;;;;21.27;10.00;;;1.70;85.10;;;;;;5054140;28;20374;-82
2023/12/07 08:44:12;;;;;;;20.05;9.40;;;1.60;85.00;;;;;;5061741;28;20121;-82
2023/12/07 08:46:43;;;;;;;23.25;10.30;;;1.60;85.10;;;;;;5060789;28;20045;-82
2023/12/07 08:49:10;;;;;;;23.20;10.82;;;1.60;85.10;;;;;;5072044;28;20609;-82
2023/12/07 08:51:37;;;;;;;23.13;11.15;;;1.60;85.20;;;;;;5056687;28;20053;-81
2023/12/07 08:54:05;;;;;;;22.83;10.60;;;1.60;85.20;;;;;;5059937;28;20050;-81
2023/12/07 08:56:32;;;;;;;24.40;11.13;;;1.50;85.20;;;;;;5049754;28;20073;-81
2023/12/07 08:58:59;;;;;;;23.35;11.10;;;1.50;85.30;;;;;;5071159;28;20061;-83
2023/12/07 09:01:27;;;;;;;23.73;11.00;;;1.50;85.40;;;;;;5059768;28;20057;-81
2023/12/07 09:03:55;;;;;;;21.90;10.63;;;1.50;85.50;;;;;;5070818;28;20080;-82
2023/12/07 09:06:22;;;;;;;26.17;11.70;;;1.50;85.50;;;;;;5070784;28;20040;-81
2023/12/07 09:08:49;;;;;;;24.40;12.05;;;1.50;85.60;;;;;;5070723;28;20056;-82
2023/12/07 09:11:16;;;;;;;24.10;11.00;;;1.50;85.60;;;;;;5069289;28;20045;-83
2023/12/07 09:13:43;;;;;;;23.95;11.82;;;1.50;85.70;;;;;;5052280;28;20153;-83
2023/12/07 09:16:10;;;;;;;25.65;12.27;;;1.50;85.70;;;;;;5052620;28;20056;-81
2023/12/07 09:18:37;;;;;;;23.63;11.57;;;1.50;85.80;;;;;;5070333;28;20083;-82
2023/12/07 09:21:07;;;;;;;23.10;11.25;;;1.50;85.80;;;;;;5068002;28;20131;-83
2023/12/07 09:23:35;;;;;;;22.27;10.73;;;1.50;85.90;;;;;;5064717;28;20144;-82
2023/12/07 09:26:03;;;;;;;23.23;10.82;;;1.50;86.00;;;;;;5048262;28;20160;-82
2023/12/07 09:28:30;;;;;;;26.10;11.50;;;1.50;86.00;;;;;;5048978;28;20053;-83
2023/12/07 09:30:57;;;;;;;25.83;11.63;;;1.50;86.10;;;;;;5047828;28;20083;-82
2023/12/07 09:33:24;;;;;;;31.23;11.55;;;1.50;86.00;;;;;;5049126;28;20052;-82
2023/12/07 09:35:51;;;;;;;30.33;10.90;;;1.50;86.10;;;;;;5050435;28;20060;-82
2023/12/07 09:38:19;;;;;;;27.50;9.80;;;1.50;86.10;;;;;;5032503;28;20052;-81
2023/12/07 09:40:48;;;;;;;23.98;10.27;;;1.40;85.90;;;;;;5050446;28;20438;-82
2023/12/07 09:43:17;;;;;;;23.00;10.23;;;1.40;86.00;;;;;;5059479;28;20061;-81
2023/12/07 09:45:45;;;;;;;23.75;9.25;;;1.40;86.10;;;;;;5085862;28;20053;-82
2023/12/07 09:48:13;;;;;;;22.13;9.77;;;1.40;86.20;;;;;;5069258;28;20883;-82
2023/12/07 09:50:40;;;;;;;24.15;10.00;;;1.40;86.30;;;;;;5069305;28;20546;-81
2023/12/07 09:53:09;;;;;;;22.45;9.95;;;1.40;86.40;;;;;;5066175;28;20049;-82
2023/12/07 09:55:37;;;;;;;25.77;9.30;;;1.30;86.50;;;;;;5052142;28;20052;-81
2023/12/07 09:58:04;;;;;;;21.27;9.55;;;1.30;86.60;;;;;;5052091;28;20079;-82
2023/12/07 10:00:33;;;;;;;21.88;8.95;;;1.30;86.60;;;;;;5048223;28;20067;-81
2023/12/07 10:03:00;;;;;;;21.00;9.40;;;1.30;86.60;;;;;;5074127;28;20056;-81
2023/12/07 10:05:27;;;;;;;23.05;9.57;;;1.30;86.70;;;;;;5067444;28;20340;-83
2023/12/07 10:07:54;;;;;;;23.73;9.40;;;1.30;86.70;;;;;;5051815;28;20045;-81
2023/12/07 10:10:21;;;;;;;17.42;8.35;;;1.30;86.70;;;;;;5048235;28;20049;-81
2023/12/07 10:12:53;;;;;;;20.30;8.82;;;1.20;86.80;;;;;;5061123;28;20057;-81
2023/12/07 10:15:21;;;;;;;17.30;7.95;;;1.20;86.80;;;;;;5098643;28;20051;-82
2023/12/07 10:17:50;;;;;;;17.85;8.30;;;1.20;86.80;;;;;;5058474;28;20182;-82
2023/12/07 10:20:18;;;;;;;17.17;8.00;;;1.20;86.90;;;;;;5047111;28;20136;-82
2023/12/07 10:22:46;;;;;;;19.02;7.68;;;1.20;87.10;;;;;;5047661;28;20184;-82
2023/12/07 10:25:14;;;;;;;18.45;8.90;;;1.20;87.20;;;;;;5046057;28;20103;-82
2023/12/07 10:27:43;;;;;;;18.35;7.70;;;1.20;87.10;;;;;;5063987;28;20083;-82
2023/12/07 10:30:13;;;;;;;17.13;8.07;;;1.20;87.20;;;;;;5032522;28;20056;-81
2023/12/07 10:32:40;;;;;;;23.97;7.23;;;1.20;87.30;;;;;;5067186;28;20149;-82
2023/12/07 10:35:09;;;;;;;16.98;7.15;;;1.30;87.40;;;;;;5068164;28;20564;-82
2023/12/07 10:37:37;;;;;;;18.67;7.38;;;1.30;87.30;;;;;;5049226;28;20063;-82
2023/12/07 10:40:07;;;;;;;16.10;8.45;;;1.20;87.20;;;;;;5066494;28;20092;-82
2023/12/07 10:42:36;;;;;;;15.80;8.05;;;1.20;87.30;;;;;;5068651;28;20077;-83
2023/12/07 10:45:09;;;;;;;17.30;8.33;;;1.20;87.40;;;;;;5067877;28;20049;-83
2023/12/07 10:47:39;;;;;;;19.63;8.68;;;1.20;87.30;;;;;;5069229;28;21084;-83
2023/12/07 10:50:10;;;;;;;16.63;8.07;;;1.20;87.40;;;;;;5067969;28;20111;-82
2023/12/07 10:52:40;;;;;;;20.15;8.40;;;1.20;87.30;;;;;;5050308;28;20056;-83
2023/12/07 10:55:13;;;;;;;18.27;9.20;;;1.20;87.50;;;;;;5067316;28;20127;-82
2023/12/07 10:57:41;;;;;;;18.47;9.03;;;1.20;87.50;;;;;;5067879;28;20045;-82
2023/12/07 11:00:09;;;;;;;18.60;8.38;;;1.30;87.50;;;;;;5064232;28;20046;-83
2023/12/07 11:02:39;;;;;;;18.83;8.30;;;1.30;87.50;;;;;;5046936;28;20127;-82
2023/12/07 11:05:07;;;;;;;23.17;9.18;;;1.30;87.50;;;;;;5047937;28;20045;-83
2023/12/07 11:07:49;;;;;;;20.27;8.70;;;1.30;87.50;;;;;;5029630;28;20049;-83
2023/12/07 11:10:22;;;;;;;16.80;8.47;;;1.30;87.50;;;;;;5046765;28;20057;-83
2023/12/07 11:12:55;;;;;;;18.20;7.82;;;1.30;87.60;;;;;;5065979;28;20064;-82
2023/12/07 11:15:22;;;;;;;21.08;8.80;;;1.40;87.70;;;;;;5063615;28;20143;-82
2023/12/07 11:17:53;;;;;;;20.75;8.75;;;1.40;87.50;;;;;;5055176;28;20088;-82
2023/12/07 11:20:22;;;;;;;21.08;9.18;;;1.40;87.50;;;;;;5066030;28;20045;-81
2023/12/07 11:22:50;;;;;;;25.43;9.17;;;1.30;87.50;;;;;;5068592;28;20041;-82
2023/12/07 11:25:43;;;;;;;23.73;8.68;;;1.30;87.50;;;;;;5068536;28;20466;-83
2023/12/07 11:28:12;;;;;;;16.40;8.45;;;1.40;87.60;;;;;;5038490;28;20140;-84
2023/12/07 11:30:43;;;;;;;23.40;8.98;;;1.30;87.60;;;;;;5071592;28;20045;-82
2023/12/07 11:33:12;;;;;;;20.15;9.40;;;1.30;87.60;;;;;;5045770;28;20079;-82
2023/12/07 11:36:07;;;;;;;20.77;8.77;;;1.30;87.50;;;;;;5084056;28;20099;-85
2023/12/07 11:38:34;;;;;;;18.92;9.00;;;1.20;87.60;;;;;;5067248;28;20126;-83
2023/12/07 11:41:02;;;;;;;24.65;9.05;;;1.30;87.70;;;;;;5066857;28;20055;-82
2023/12/07 11:43:45;;;;;;;17.40;8.70;;;1.20;87.70;;;;;;5066342;28;20107;-83
2023/12/07 11:46:14;;;;;;;21.67;9.57;;;1.30;87.60;;;;;;5050340;28;20052;-82
2023/12/07 11:48:47;;;;;;;19.17;9.00;;;1.20;87.80;;;;;;5066619;28;20084;-84
2023/12/07 11:51:14;;;;;;;18.73;8.90;;;1.20;87.90;;;;;;5065398;28;20088;-81
2023/12/07 11:53:41;;;;;;;20.45;9.98;;;1.30;87.80;;;;;;5067121;28;20132;-81
2023/12/07 11:56:11;;;;;;;21.80;9.57;;;1.30;87.80;;;;;;5067227;28;20045;-81
2023/12/07 11:58:38;;;;;;;25.65;8.80;;;1.30;87.90;;;;;;5065952;28;20970;-81
2023/12/07 12:01:07;;;;;;;18.90;8.50;;;1.40;87.90;;;;;;5066982;28;20513;-82
2023/12/07 12:03:34;;;;;;;14.90;6.60;;;1.30;87.90;;;;;;5065364;28;20056;-82
2023/12/07 12:06:06;;;;;;;21.48;9.25;;;1.30;88.10;;;;;;5065390;28;20067;-81
2023/12/07 12:08:33;;;;;;;20.25;9.82;;;1.40;87.90;;;;;;5081380;28;20053;-81
2023/12/07 12:11:01;;;;;;;17.77;8.95;;;1.40;88.00;;;;;;5067413;28;20404;-83
2023/12/07 12:13:29;;;;;;;18.37;9.40;;;1.40;88.20;;;;;;5066322;28;20045;-86
2023/12/07 12:15:57;;;;;;;19.38;9.30;;;1.40;88.20;;;;;;5067121;28;20076;-83
2023/12/07 12:18:26;;;;;;;19.02;9.20;;;1.40;88.40;;;;;;5066482;28;20118;-82
2023/12/07 12:20:53;;;;;;;19.83;9.07;;;1.40;88.30;;;;;;5066569;28;20154;-83
2023/12/07 12:23:22;;;;;;;22.40;9.77;;;1.40;88.30;;;;;;5068238;28;20053;-83
2023/12/07 12:25:50;;;;;;;21.77;8.97;;;1.40;88.40;;;;;;5067020;28;20053;-83
2023/12/07 12:28:21;;;;;;;21.13;9.80;;;1.50;88.40;;;;;;5062384;28;20524;-81
2023/12/07 12:30:49;;;;;;;21.38;9.65;;;1.40;88.40;;;;;;5068121;28;20050;-83
2023/12/07 12:33:16;;;;;;;22.77;9.93;;;1.50;88.50;;;;;;5067452;28;20140;-80
2023/12/07 12:35:44;;;;;;;23.50;10.00;;;1.50;88.50;;;;;;5066865;28;20056;-81
2023/12/07 12:38:11;;;;;;;26.27;8.73;;;1.50;88.60;;;;;;5065736;28;20053;-81
2023/12/07 12:40:41;;;;;;;30.10;9.55;;;1.50;88.70;;;;;;5067111;28;20056;-79
2023/12/07 12:43:08;;;;;;;23.25;8.95;;;1.60;88.70;;;;;;5065419;28;20049;-82
2023/12/07 12:45:35;;;;;;;25.88;11.45;;;1.60;88.60;;;;;;5065134;28;20477;-81
2023/12/07 12:48:03;;;;;;;23.42;10.20;;;1.60;88.50;;;;;;5083158;28;20055;-81